sensor_id;sensor_type;location;lat;lon;timestamp;temperature;humidity
23156;DHT22;11746;50.876;4.246;2023-08-31T00:00:12;13.50;99.90
23156;DHT22;11746;50.876;4.246;2023-08-31T00:02:41;13.50;99.90
23156;DHT22;11746;50.876;4.246;2023-08-31T00:05:07;13.50;99.90
23156;DHT22;11746;50.876;4.246;2023-08-31T00:07:38;13.50;99.90
23156;DHT22;11746;50.876;4.246;2023-08-31T00:10:04;13.60;99.90
23156;DHT22;11746;50.876;4.246;2023-08-31T00:12:35;13.60;99.90
23156;DHT22;11746;50.876;4.246;2023-08-31T00:15:04;13.60;99.90
23156;DHT22;11746;50.876;4.246;2023-08-31T00:17:30;13.50;99.90
23156;DHT22;11746;50.876;4.246;2023-08-31T00:19:56;13.60;99.90
23156;DHT22;11746;50.876;4.246;2023-08-31T00:22:21;13.50;99.90
23156;DHT22;11746;50.876;4.246;2023-08-31T00:24:47;13.40;99.90
23156;DHT22;11746;50.876;4.246;2023-08-31T00:27:13;13.40;99.90
23156;DHT22;11746;50.876;4.246;2023-08-31T00:29:40;13.40;99.90
23156;DHT22;11746;50.876;4.246;2023-08-31T00:32:06;13.60;99.90
23156;DHT22;11746;50.876;4.246;2023-08-31T00:34:31;13.70;99.90
23156;DHT22;11746;50.876;4.246;2023-08-31T00:37:00;13.70;99.90
23156;DHT22;11746;50.876;4.246;2023-08-31T00:39:25;13.70;99.90
23156;DHT22;11746;50.876;4.246;2023-08-31T00:41:53;13.70;99.90
23156;DHT22;11746;50.876;4.246;2023-08-31T00:44:19;13.50;99.90
23156;DHT22;11746;50.876;4.246;2023-08-31T00:46:45;13.60;99.90
23156;DHT22;11746;50.876;4.246;2023-08-31T00:49:11;13.60;99.90
23156;DHT22;11746;50.876;4.246;2023-08-31T00:51:38;13.60;99.90
23156;DHT22;11746;50.876;4.246;2023-08-31T00:54:04;13.70;99.90
23156;DHT22;11746;50.876;4.246;2023-08-31T00:56:31;13.70;99.90
23156;DHT22;11746;50.876;4.246;2023-08-31T00:58:56;13.60;99.90
23156;DHT22;11746;50.876;4.246;2023-08-31T01:01:49;13.50;99.90
23156;DHT22;11746;50.876;4.246;2023-08-31T01:04:27;13.50;99.90
23156;DHT22;11746;50.876;4.246;2023-08-31T01:07:00;13.60;99.90
23156;DHT22;11746;50.876;4.246;2023-08-31T01:09:34;13.60;99.90
23156;DHT22;11746;50.876;4.246;2023-08-31T01:12:09;13.60;99.90
23156;DHT22;11746;50.876;4.246;2023-08-31T01:14:42;13.60;99.90
23156;DHT22;11746;50.876;4.246;2023-08-31T01:17:11;13.50;99.90
23156;DHT22;11746;50.876;4.246;2023-08-31T01:22:11;13.60;99.90
23156;DHT22;11746;50.876;4.246;2023-08-31T01:24:37;13.60;99.90
23156;DHT22;11746;50.876;4.246;2023-08-31T01:27:04;13.70;99.90
23156;DHT22;11746;50.876;4.246;2023-08-31T01:29:30;13.70;99.90
23156;DHT22;11746;50.876;4.246;2023-08-31T01:31:56;13.60;99.90
23156;DHT22;11746;50.876;4.246;2023-08-31T01:34:24;13.70;99.90
23156;DHT22;11746;50.876;4.246;2023-08-31T01:36:55;13.70;99.90
23156;DHT22;11746;50.876;4.246;2023-08-31T01:39:33;13.70;99.90
23156;DHT22;11746;50.876;4.246;2023-08-31T01:42:03;13.70;99.90
23156;DHT22;11746;50.876;4.246;2023-08-31T01:44:31;13.70;99.90
23156;DHT22;11746;50.876;4.246;2023-08-31T01:47:05;13.70;99.90
23156;DHT22;11746;50.876;4.246;2023-08-31T01:49:37;13.70;99.90
23156;DHT22;11746;50.876;4.246;2023-08-31T01:52:04;13.70;99.90
23156;DHT22;11746;50.876;4.246;2023-08-31T01:54:29;13.50;99.90
23156;DHT22;11746;50.876;4.246;2023-08-31T01:56:58;13.50;99.90
23156;DHT22;11746;50.876;4.246;2023-08-31T01:59:26;13.50;99.90
23156;DHT22;11746;50.876;4.246;2023-08-31T02:01:52;13.50;99.90
23156;DHT22;11746;50.876;4.246;2023-08-31T02:04:20;13.60;99.90
23156;DHT22;11746;50.876;4.246;2023-08-31T02:06:50;13.60;99.90
23156;DHT22;11746;50.876;4.246;2023-08-31T02:09:16;13.60;99.90
23156;DHT22;11746;50.876;4.246;2023-08-31T02:11:42;13.60;99.90
23156;DHT22;11746;50.876;4.246;2023-08-31T02:14:07;13.60;99.90
23156;DHT22;11746;50.876;4.246;2023-08-31T02:16:34;13.50;99.90
23156;DHT22;11746;50.876;4.246;2023-08-31T02:18:59;13.50;99.90
23156;DHT22;11746;50.876;4.246;2023-08-31T02:21:25;13.60;99.90
23156;DHT22;11746;50.876;4.246;2023-08-31T02:23:51;13.50;99.90
23156;DHT22;11746;50.876;4.246;2023-08-31T02:26:16;13.60;99.90
23156;DHT22;11746;50.876;4.246;2023-08-31T02:28:42;13.50;99.90
23156;DHT22;11746;50.876;4.246;2023-08-31T02:31:10;13.60;99.90
23156;DHT22;11746;50.876;4.246;2023-08-31T02:33:37;13.60;99.90
23156;DHT22;11746;50.876;4.246;2023-08-31T02:36:02;13.60;99.90
23156;DHT22;11746;50.876;4.246;2023-08-31T02:38:30;13.50;99.90
23156;DHT22;11746;50.876;4.246;2023-08-31T02:40:56;13.60;99.90
23156;DHT22;11746;50.876;4.246;2023-08-31T02:43:24;13.50;99.90
23156;DHT22;11746;50.876;4.246;2023-08-31T02:45:58;13.50;99.90
23156;DHT22;11746;50.876;4.246;2023-08-31T02:48:26;13.40;99.90
23156;DHT22;11746;50.876;4.246;2023-08-31T02:50:53;13.40;99.90
23156;DHT22;11746;50.876;4.246;2023-08-31T02:53:19;13.50;99.90
23156;DHT22;11746;50.876;4.246;2023-08-31T02:55:45;13.50;99.90
23156;DHT22;11746;50.876;4.246;2023-08-31T02:58:13;13.60;99.90
23156;DHT22;11746;50.876;4.246;2023-08-31T03:00:39;13.60;99.90
23156;DHT22;11746;50.876;4.246;2023-08-31T03:03:08;13.60;99.90
23156;DHT22;11746;50.876;4.246;2023-08-31T03:05:34;13.50;99.90
23156;DHT22;11746;50.876;4.246;2023-08-31T03:08:00;13.60;99.90
23156;DHT22;11746;50.876;4.246;2023-08-31T03:10:28;13.70;99.90
23156;DHT22;11746;50.876;4.246;2023-08-31T03:12:56;13.70;99.90
23156;DHT22;11746;50.876;4.246;2023-08-31T03:15:24;13.70;99.90
23156;DHT22;11746;50.876;4.246;2023-08-31T03:17:50;13.70;99.90
23156;DHT22;11746;50.876;4.246;2023-08-31T03:20:18;13.70;99.90
23156;DHT22;11746;50.876;4.246;2023-08-31T03:22:43;13.70;99.90
23156;DHT22;11746;50.876;4.246;2023-08-31T03:25:09;13.60;99.90
23156;DHT22;11746;50.876;4.246;2023-08-31T03:27:35;13.60;99.90
23156;DHT22;11746;50.876;4.246;2023-08-31T03:30:01;13.60;99.90
23156;DHT22;11746;50.876;4.246;2023-08-31T03:32:28;13.60;99.90
23156;DHT22;11746;50.876;4.246;2023-08-31T03:34:54;13.70;99.90
23156;DHT22;11746;50.876;4.246;2023-08-31T03:37:24;13.80;99.90
23156;DHT22;11746;50.876;4.246;2023-08-31T03:39:50;13.80;99.90
23156;DHT22;11746;50.876;4.246;2023-08-31T03:42:18;13.70;99.90
23156;DHT22;11746;50.876;4.246;2023-08-31T03:44:46;13.60;99.90
23156;DHT22;11746;50.876;4.246;2023-08-31T03:47:12;13.60;99.90
23156;DHT22;11746;50.876;4.246;2023-08-31T03:49:37;13.50;99.90
23156;DHT22;11746;50.876;4.246;2023-08-31T03:52:03;13.50;99.90
23156;DHT22;11746;50.876;4.246;2023-08-31T03:54:31;13.60;99.90
23156;DHT22;11746;50.876;4.246;2023-08-31T03:56:57;13.60;99.90
23156;DHT22;11746;50.876;4.246;2023-08-31T03:59:23;13.60;99.90
23156;DHT22;11746;50.876;4.246;2023-08-31T04:01:51;13.70;99.90
23156;DHT22;11746;50.876;4.246;2023-08-31T04:04:18;13.70;99.90
23156;DHT22;11746;50.876;4.246;2023-08-31T04:06:46;13.50;99.90
23156;DHT22;11746;50.876;4.246;2023-08-31T04:09:12;13.40;99.90
23156;DHT22;11746;50.876;4.246;2023-08-31T04:11:38;13.60;99.90
23156;DHT22;11746;50.876;4.246;2023-08-31T04:14:03;13.60;99.90
23156;DHT22;11746;50.876;4.246;2023-08-31T04:16:29;13.50;99.90
23156;DHT22;11746;50.876;4.246;2023-08-31T04:18:55;13.40;99.90
23156;DHT22;11746;50.876;4.246;2023-08-31T04:21:21;13.40;99.90
23156;DHT22;11746;50.876;4.246;2023-08-31T04:23:46;13.40;99.90
23156;DHT22;11746;50.876;4.246;2023-08-31T04:26:14;13.20;99.90
23156;DHT22;11746;50.876;4.246;2023-08-31T04:28:43;13.30;99.90
23156;DHT22;11746;50.876;4.246;2023-08-31T04:31:11;13.20;99.90
23156;DHT22;11746;50.876;4.246;2023-08-31T04:33:38;13.30;99.90
23156;DHT22;11746;50.876;4.246;2023-08-31T04:36:04;13.30;99.90
23156;DHT22;11746;50.876;4.246;2023-08-31T04:38:34;13.20;99.90
23156;DHT22;11746;50.876;4.246;2023-08-31T04:41:00;13.20;99.90
23156;DHT22;11746;50.876;4.246;2023-08-31T04:43:27;13.10;99.90
23156;DHT22;11746;50.876;4.246;2023-08-31T04:45:53;13.00;99.90
23156;DHT22;11746;50.876;4.246;2023-08-31T04:48:19;13.10;99.90
23156;DHT22;11746;50.876;4.246;2023-08-31T04:50:44;13.20;99.90
23156;DHT22;11746;50.876;4.246;2023-08-31T04:53:10;13.10;99.90
23156;DHT22;11746;50.876;4.246;2023-08-31T04:55:35;13.10;99.90
23156;DHT22;11746;50.876;4.246;2023-08-31T04:58:01;13.00;99.90
23156;DHT22;11746;50.876;4.246;2023-08-31T05:00:29;13.10;99.90
23156;DHT22;11746;50.876;4.246;2023-08-31T05:02:55;13.00;99.90
23156;DHT22;11746;50.876;4.246;2023-08-31T05:05:21;13.00;99.90
23156;DHT22;11746;50.876;4.246;2023-08-31T05:07:47;13.10;99.90
23156;DHT22;11746;50.876;4.246;2023-08-31T05:10:13;12.90;99.90
23156;DHT22;11746;50.876;4.246;2023-08-31T05:12:38;13.10;99.90
23156;DHT22;11746;50.876;4.246;2023-08-31T05:15:05;13.00;99.90
23156;DHT22;11746;50.876;4.246;2023-08-31T05:17:30;13.00;99.90
23156;DHT22;11746;50.876;4.246;2023-08-31T05:19:59;13.00;99.90
23156;DHT22;11746;50.876;4.246;2023-08-31T05:22:25;13.10;99.90
23156;DHT22;11746;50.876;4.246;2023-08-31T05:24:50;13.00;99.90
23156;DHT22;11746;50.876;4.246;2023-08-31T05:27:16;13.00;99.90
23156;DHT22;11746;50.876;4.246;2023-08-31T05:29:41;13.10;99.90
23156;DHT22;11746;50.876;4.246;2023-08-31T05:32:07;13.20;99.90
23156;DHT22;11746;50.876;4.246;2023-08-31T05:34:33;13.20;99.90
23156;DHT22;11746;50.876;4.246;2023-08-31T05:37:03;13.20;99.90
23156;DHT22;11746;50.876;4.246;2023-08-31T05:39:30;13.10;99.90
23156;DHT22;11746;50.876;4.246;2023-08-31T05:41:58;13.10;99.90
23156;DHT22;11746;50.876;4.246;2023-08-31T05:44:26;13.00;99.90
23156;DHT22;11746;50.876;4.246;2023-08-31T05:46:52;13.00;99.90
23156;DHT22;11746;50.876;4.246;2023-08-31T05:49:20;13.10;99.90
23156;DHT22;11746;50.876;4.246;2023-08-31T05:51:45;13.20;99.90
23156;DHT22;11746;50.876;4.246;2023-08-31T05:54:11;13.10;99.90
23156;DHT22;11746;50.876;4.246;2023-08-31T05:56:39;13.10;99.90
23156;DHT22;11746;50.876;4.246;2023-08-31T05:59:06;13.00;99.90
23156;DHT22;11746;50.876;4.246;2023-08-31T06:01:32;13.00;99.90
23156;DHT22;11746;50.876;4.246;2023-08-31T06:04:00;12.90;99.90
23156;DHT22;11746;50.876;4.246;2023-08-31T06:06:26;13.00;99.90
23156;DHT22;11746;50.876;4.246;2023-08-31T06:08:54;13.00;99.90
23156;DHT22;11746;50.876;4.246;2023-08-31T06:11:20;13.00;99.90
23156;DHT22;11746;50.876;4.246;2023-08-31T06:13:49;13.10;99.90
23156;DHT22;11746;50.876;4.246;2023-08-31T06:16:17;13.30;99.90
23156;DHT22;11746;50.876;4.246;2023-08-31T06:18:42;13.30;99.90
23156;DHT22;11746;50.876;4.246;2023-08-31T06:21:09;13.20;99.90
23156;DHT22;11746;50.876;4.246;2023-08-31T06:23:34;13.30;99.90
23156;DHT22;11746;50.876;4.246;2023-08-31T06:26:02;13.40;99.90
23156;DHT22;11746;50.876;4.246;2023-08-31T06:28:28;13.30;99.90
23156;DHT22;11746;50.876;4.246;2023-08-31T06:30:54;13.40;99.90
23156;DHT22;11746;50.876;4.246;2023-08-31T06:33:20;13.30;99.90
23156;DHT22;11746;50.876;4.246;2023-08-31T06:35:48;13.40;99.90
23156;DHT22;11746;50.876;4.246;2023-08-31T06:38:19;13.50;99.90
23156;DHT22;11746;50.876;4.246;2023-08-31T06:40:46;13.50;99.90
23156;DHT22;11746;50.876;4.246;2023-08-31T06:43:16;13.50;99.90
23156;DHT22;11746;50.876;4.246;2023-08-31T06:45:42;13.60;99.90
23156;DHT22;11746;50.876;4.246;2023-08-31T06:48:07;13.70;99.90
23156;DHT22;11746;50.876;4.246;2023-08-31T06:50:35;13.60;99.90
23156;DHT22;11746;50.876;4.246;2023-08-31T06:53:01;13.60;99.90
23156;DHT22;11746;50.876;4.246;2023-08-31T06:55:27;13.60;99.90
23156;DHT22;11746;50.876;4.246;2023-08-31T06:57:55;13.80;99.90
23156;DHT22;11746;50.876;4.246;2023-08-31T07:00:21;13.80;99.90
23156;DHT22;11746;50.876;4.246;2023-08-31T07:02:46;13.90;99.90
23156;DHT22;11746;50.876;4.246;2023-08-31T07:05:12;14.00;99.90
23156;DHT22;11746;50.876;4.246;2023-08-31T07:07:37;13.90;99.90
23156;DHT22;11746;50.876;4.246;2023-08-31T07:10:06;14.10;99.90
23156;DHT22;11746;50.876;4.246;2023-08-31T07:12:32;14.30;99.90
23156;DHT22;11746;50.876;4.246;2023-08-31T07:14:58;14.40;99.90
23156;DHT22;11746;50.876;4.246;2023-08-31T07:17:23;14.20;99.90
23156;DHT22;11746;50.876;4.246;2023-08-31T07:19:49;14.20;99.90
23156;DHT22;11746;50.876;4.246;2023-08-31T07:22:17;14.30;99.90
23156;DHT22;11746;50.876;4.246;2023-08-31T07:24:42;14.20;99.90
23156;DHT22;11746;50.876;4.246;2023-08-31T07:27:08;14.30;99.90
23156;DHT22;11746;50.876;4.246;2023-08-31T07:29:34;14.50;99.90
23156;DHT22;11746;50.876;4.246;2023-08-31T07:32:02;14.40;99.90
23156;DHT22;11746;50.876;4.246;2023-08-31T07:34:28;14.40;99.90
23156;DHT22;11746;50.876;4.246;2023-08-31T07:36:56;14.30;99.90
23156;DHT22;11746;50.876;4.246;2023-08-31T07:39:24;14.40;99.90
23156;DHT22;11746;50.876;4.246;2023-08-31T07:41:50;14.40;99.90
23156;DHT22;11746;50.876;4.246;2023-08-31T07:44:15;14.60;99.90
23156;DHT22;11746;50.876;4.246;2023-08-31T07:46:41;14.80;99.90
23156;DHT22;11746;50.876;4.246;2023-08-31T07:49:07;14.90;99.90
23156;DHT22;11746;50.876;4.246;2023-08-31T07:51:32;15.00;99.90
23156;DHT22;11746;50.876;4.246;2023-08-31T07:53:59;15.00;99.90
23156;DHT22;11746;50.876;4.246;2023-08-31T07:56:25;15.00;99.90
23156;DHT22;11746;50.876;4.246;2023-08-31T07:58:51;15.10;99.90
23156;DHT22;11746;50.876;4.246;2023-08-31T08:01:19;15.00;99.90
23156;DHT22;11746;50.876;4.246;2023-08-31T08:03:44;15.10;99.90
23156;DHT22;11746;50.876;4.246;2023-08-31T08:06:12;15.10;99.90
23156;DHT22;11746;50.876;4.246;2023-08-31T08:08:38;15.10;99.90
23156;DHT22;11746;50.876;4.246;2023-08-31T08:11:04;15.20;99.90
23156;DHT22;11746;50.876;4.246;2023-08-31T08:13:35;15.30;99.90
23156;DHT22;11746;50.876;4.246;2023-08-31T08:16:01;15.40;99.90
23156;DHT22;11746;50.876;4.246;2023-08-31T08:18:30;15.60;99.90
23156;DHT22;11746;50.876;4.246;2023-08-31T08:20:55;15.60;99.90
23156;DHT22;11746;50.876;4.246;2023-08-31T08:23:21;15.60;99.90
23156;DHT22;11746;50.876;4.246;2023-08-31T08:25:49;15.60;99.90
23156;DHT22;11746;50.876;4.246;2023-08-31T08:28:15;15.80;99.90
23156;DHT22;11746;50.876;4.246;2023-08-31T08:30:41;15.70;99.90
23156;DHT22;11746;50.876;4.246;2023-08-31T08:33:07;15.70;99.90
23156;DHT22;11746;50.876;4.246;2023-08-31T08:35:33;15.90;99.90
23156;DHT22;11746;50.876;4.246;2023-08-31T08:37:59;16.10;99.90
23156;DHT22;11746;50.876;4.246;2023-08-31T08:40:27;16.30;99.90
23156;DHT22;11746;50.876;4.246;2023-08-31T08:42:56;16.40;99.90
23156;DHT22;11746;50.876;4.246;2023-08-31T08:45:24;16.40;99.90
23156;DHT22;11746;50.876;4.246;2023-08-31T08:47:52;16.40;99.90
23156;DHT22;11746;50.876;4.246;2023-08-31T08:50:18;16.40;99.90
23156;DHT22;11746;50.876;4.246;2023-08-31T08:52:47;16.50;99.90
23156;DHT22;11746;50.876;4.246;2023-08-31T08:55:13;16.60;99.90
23156;DHT22;11746;50.876;4.246;2023-08-31T08:57:40;16.80;99.90
23156;DHT22;11746;50.876;4.246;2023-08-31T09:00:06;16.90;99.90
23156;DHT22;11746;50.876;4.246;2023-08-31T09:02:32;16.90;99.90
23156;DHT22;11746;50.876;4.246;2023-08-31T09:05:02;16.80;99.90
23156;DHT22;11746;50.876;4.246;2023-08-31T09:07:30;16.60;99.90
23156;DHT22;11746;50.876;4.246;2023-08-31T09:09:59;16.60;99.90
23156;DHT22;11746;50.876;4.246;2023-08-31T09:12:28;16.70;99.90
23156;DHT22;11746;50.876;4.246;2023-08-31T09:15:00;16.70;99.90
23156;DHT22;11746;50.876;4.246;2023-08-31T09:17:26;16.80;99.90
23156;DHT22;11746;50.876;4.246;2023-08-31T09:20:02;16.70;99.90
23156;DHT22;11746;50.876;4.246;2023-08-31T09:22:35;16.70;99.90
23156;DHT22;11746;50.876;4.246;2023-08-31T09:25:01;16.70;99.90
23156;DHT22;11746;50.876;4.246;2023-08-31T09:27:31;16.80;99.90
23156;DHT22;11746;50.876;4.246;2023-08-31T09:30:03;17.00;99.90
23156;DHT22;11746;50.876;4.246;2023-08-31T09:32:29;17.10;99.90
23156;DHT22;11746;50.876;4.246;2023-08-31T09:34:55;17.20;99.90
23156;DHT22;11746;50.876;4.246;2023-08-31T09:37:20;17.40;99.90
23156;DHT22;11746;50.876;4.246;2023-08-31T09:39:47;17.40;99.90
23156;DHT22;11746;50.876;4.246;2023-08-31T09:42:12;17.40;99.90
23156;DHT22;11746;50.876;4.246;2023-08-31T09:44:44;17.50;99.90
23156;DHT22;11746;50.876;4.246;2023-08-31T09:47:14;17.50;99.90
23156;DHT22;11746;50.876;4.246;2023-08-31T09:49:41;17.60;99.90
23156;DHT22;11746;50.876;4.246;2023-08-31T09:52:09;17.90;99.90
23156;DHT22;11746;50.876;4.246;2023-08-31T09:54:35;18.10;99.90
23156;DHT22;11746;50.876;4.246;2023-08-31T09:57:02;18.20;99.90
23156;DHT22;11746;50.876;4.246;2023-08-31T09:59:29;18.20;99.90
23156;DHT22;11746;50.876;4.246;2023-08-31T10:01:57;18.40;99.90
23156;DHT22;11746;50.876;4.246;2023-08-31T10:04:23;18.50;99.90
23156;DHT22;11746;50.876;4.246;2023-08-31T10:06:50;18.50;99.90
23156;DHT22;11746;50.876;4.246;2023-08-31T10:09:19;18.60;99.90
23156;DHT22;11746;50.876;4.246;2023-08-31T10:11:44;18.40;99.90
23156;DHT22;11746;50.876;4.246;2023-08-31T10:14:11;18.40;99.90
23156;DHT22;11746;50.876;4.246;2023-08-31T10:16:39;18.30;99.90
23156;DHT22;11746;50.876;4.246;2023-08-31T10:19:05;18.40;99.90
23156;DHT22;11746;50.876;4.246;2023-08-31T10:21:32;18.40;99.90
23156;DHT22;11746;50.876;4.246;2023-08-31T10:23:57;18.40;99.90
23156;DHT22;11746;50.876;4.246;2023-08-31T10:26:28;18.40;99.90
23156;DHT22;11746;50.876;4.246;2023-08-31T10:28:58;18.50;99.90
23156;DHT22;11746;50.876;4.246;2023-08-31T10:31:28;18.70;99.90
23156;DHT22;11746;50.876;4.246;2023-08-31T10:34:02;18.70;99.90
23156;DHT22;11746;50.876;4.246;2023-08-31T10:36:40;18.60;99.90
23156;DHT22;11746;50.876;4.246;2023-08-31T10:41:37;18.50;99.90
23156;DHT22;11746;50.876;4.246;2023-08-31T10:44:18;18.60;99.90
23156;DHT22;11746;50.876;4.246;2023-08-31T10:46:47;18.70;99.90
23156;DHT22;11746;50.876;4.246;2023-08-31T10:49:17;19.10;99.90
23156;DHT22;11746;50.876;4.246;2023-08-31T10:51:56;19.50;99.90
23156;DHT22;11746;50.876;4.246;2023-08-31T10:54:30;19.70;99.90
23156;DHT22;11746;50.876;4.246;2023-08-31T10:59:40;19.30;99.90
23156;DHT22;11746;50.876;4.246;2023-08-31T11:02:06;19.00;99.90
23156;DHT22;11746;50.876;4.246;2023-08-31T11:04:57;18.80;99.90
23156;DHT22;11746;50.876;4.246;2023-08-31T11:07:26;18.60;99.90
23156;DHT22;11746;50.876;4.246;2023-08-31T11:10:39;18.70;99.90
23156;DHT22;11746;50.876;4.246;2023-08-31T11:12:58;18.80;99.90
23156;DHT22;11746;50.876;4.246;2023-08-31T11:15:27;19.00;99.90
23156;DHT22;11746;50.876;4.246;2023-08-31T11:17:55;19.10;99.90
23156;DHT22;11746;50.876;4.246;2023-08-31T11:20:24;19.20;99.90
23156;DHT22;11746;50.876;4.246;2023-08-31T11:22:54;19.00;99.90
23156;DHT22;11746;50.876;4.246;2023-08-31T11:25:20;18.90;99.90
23156;DHT22;11746;50.876;4.246;2023-08-31T11:27:58;19.00;99.90
23156;DHT22;11746;50.876;4.246;2023-08-31T11:30:28;19.40;99.90
23156;DHT22;11746;50.876;4.246;2023-08-31T11:32:57;19.70;99.90
23156;DHT22;11746;50.876;4.246;2023-08-31T11:35:23;19.70;99.90
23156;DHT22;11746;50.876;4.246;2023-08-31T11:37:51;19.70;99.90
23156;DHT22;11746;50.876;4.246;2023-08-31T11:40:17;19.60;99.90
23156;DHT22;11746;50.876;4.246;2023-08-31T11:42:46;19.40;99.90
23156;DHT22;11746;50.876;4.246;2023-08-31T11:45:13;19.30;99.90
23156;DHT22;11746;50.876;4.246;2023-08-31T11:47:40;19.00;99.90
23156;DHT22;11746;50.876;4.246;2023-08-31T11:50:07;19.00;99.90
23156;DHT22;11746;50.876;4.246;2023-08-31T11:52:35;19.00;99.90
23156;DHT22;11746;50.876;4.246;2023-08-31T11:55:01;18.80;99.90
23156;DHT22;11746;50.876;4.246;2023-08-31T11:57:28;18.80;99.90
23156;DHT22;11746;50.876;4.246;2023-08-31T11:59:55;18.80;99.90
23156;DHT22;11746;50.876;4.246;2023-08-31T12:02:23;18.80;99.90
23156;DHT22;11746;50.876;4.246;2023-08-31T12:04:49;19.00;99.90
23156;DHT22;11746;50.876;4.246;2023-08-31T12:07:18;19.20;99.90
23156;DHT22;11746;50.876;4.246;2023-08-31T12:09:49;19.30;99.90
23156;DHT22;11746;50.876;4.246;2023-08-31T12:12:20;19.20;99.90
23156;DHT22;11746;50.876;4.246;2023-08-31T12:14:52;19.10;99.90
23156;DHT22;11746;50.876;4.246;2023-08-31T12:17:18;19.00;99.90
23156;DHT22;11746;50.876;4.246;2023-08-31T12:19:47;19.00;99.90
23156;DHT22;11746;50.876;4.246;2023-08-31T12:22:12;18.80;99.90
23156;DHT22;11746;50.876;4.246;2023-08-31T12:24:41;18.70;99.90
23156;DHT22;11746;50.876;4.246;2023-08-31T12:27:10;18.80;99.90
23156;DHT22;11746;50.876;4.246;2023-08-31T12:29:36;18.60;99.90
23156;DHT22;11746;50.876;4.246;2023-08-31T12:32:02;18.80;99.90
23156;DHT22;11746;50.876;4.246;2023-08-31T12:34:29;19.00;99.90
23156;DHT22;11746;50.876;4.246;2023-08-31T12:36:56;19.00;99.90
23156;DHT22;11746;50.876;4.246;2023-08-31T12:39:27;19.00;99.90
23156;DHT22;11746;50.876;4.246;2023-08-31T12:41:55;19.00;99.90
23156;DHT22;11746;50.876;4.246;2023-08-31T12:44:24;18.80;99.90
23156;DHT22;11746;50.876;4.246;2023-08-31T12:46:53;18.90;99.90
23156;DHT22;11746;50.876;4.246;2023-08-31T12:49:19;18.90;99.90
23156;DHT22;11746;50.876;4.246;2023-08-31T12:51:48;19.10;99.90
23156;DHT22;11746;50.876;4.246;2023-08-31T12:54:19;19.10;99.90
23156;DHT22;11746;50.876;4.246;2023-08-31T12:56:45;19.20;99.90
23156;DHT22;11746;50.876;4.246;2023-08-31T12:59:10;19.20;99.90
23156;DHT22;11746;50.876;4.246;2023-08-31T13:01:36;19.30;99.90
23156;DHT22;11746;50.876;4.246;2023-08-31T13:04:02;19.30;99.90
23156;DHT22;11746;50.876;4.246;2023-08-31T13:06:30;19.40;99.90
23156;DHT22;11746;50.876;4.246;2023-08-31T13:08:58;19.30;99.90
23156;DHT22;11746;50.876;4.246;2023-08-31T13:11:24;19.30;99.90
23156;DHT22;11746;50.876;4.246;2023-08-31T13:13:54;19.30;99.90
23156;DHT22;11746;50.876;4.246;2023-08-31T13:16:21;19.40;99.90
23156;DHT22;11746;50.876;4.246;2023-08-31T13:18:49;19.70;99.90
23156;DHT22;11746;50.876;4.246;2023-08-31T13:21:15;19.70;99.90
23156;DHT22;11746;50.876;4.246;2023-08-31T13:23:41;19.80;99.90
23156;DHT22;11746;50.876;4.246;2023-08-31T13:26:08;19.70;99.90
23156;DHT22;11746;50.876;4.246;2023-08-31T13:28:34;19.80;99.90
23156;DHT22;11746;50.876;4.246;2023-08-31T13:30:59;19.90;99.90
23156;DHT22;11746;50.876;4.246;2023-08-31T13:33:28;20.00;99.90
23156;DHT22;11746;50.876;4.246;2023-08-31T13:35:57;20.00;99.90
23156;DHT22;11746;50.876;4.246;2023-08-31T13:38:26;20.00;99.90
23156;DHT22;11746;50.876;4.246;2023-08-31T13:40:55;20.20;99.90
23156;DHT22;11746;50.876;4.246;2023-08-31T13:43:24;20.40;99.90
23156;DHT22;11746;50.876;4.246;2023-08-31T13:45:50;20.30;99.90
23156;DHT22;11746;50.876;4.246;2023-08-31T13:48:18;20.30;99.90
23156;DHT22;11746;50.876;4.246;2023-08-31T13:50:46;20.40;99.90
23156;DHT22;11746;50.876;4.246;2023-08-31T13:53:14;20.50;99.90
23156;DHT22;11746;50.876;4.246;2023-08-31T13:55:40;20.20;99.90
23156;DHT22;11746;50.876;4.246;2023-08-31T13:58:06;20.10;99.90
23156;DHT22;11746;50.876;4.246;2023-08-31T14:00:36;20.20;99.90
23156;DHT22;11746;50.876;4.246;2023-08-31T14:03:04;20.20;99.90
23156;DHT22;11746;50.876;4.246;2023-08-31T14:05:30;20.20;99.90
23156;DHT22;11746;50.876;4.246;2023-08-31T14:07:58;19.90;99.90
23156;DHT22;11746;50.876;4.246;2023-08-31T14:10:26;19.70;99.90
23156;DHT22;11746;50.876;4.246;2023-08-31T14:12:52;19.80;99.90
23156;DHT22;11746;50.876;4.246;2023-08-31T14:15:19;19.70;99.90
23156;DHT22;11746;50.876;4.246;2023-08-31T14:17:44;19.70;99.90
23156;DHT22;11746;50.876;4.246;2023-08-31T14:20:10;19.60;99.90
23156;DHT22;11746;50.876;4.246;2023-08-31T14:22:37;19.80;99.90
23156;DHT22;11746;50.876;4.246;2023-08-31T14:25:13;19.80;99.90
23156;DHT22;11746;50.876;4.246;2023-08-31T14:27:39;19.80;99.90
23156;DHT22;11746;50.876;4.246;2023-08-31T14:30:08;19.70;99.90
23156;DHT22;11746;50.876;4.246;2023-08-31T14:32:34;19.50;99.90
23156;DHT22;11746;50.876;4.246;2023-08-31T14:35:00;19.30;99.90
23156;DHT22;11746;50.876;4.246;2023-08-31T14:37:26;19.20;99.90
23156;DHT22;11746;50.876;4.246;2023-08-31T14:39:52;19.40;99.90
23156;DHT22;11746;50.876;4.246;2023-08-31T14:42:20;19.30;99.90
23156;DHT22;11746;50.876;4.246;2023-08-31T14:44:48;19.40;99.90
23156;DHT22;11746;50.876;4.246;2023-08-31T14:47:14;19.50;99.90
23156;DHT22;11746;50.876;4.246;2023-08-31T14:49:42;19.50;99.90
23156;DHT22;11746;50.876;4.246;2023-08-31T14:52:08;19.50;99.90
23156;DHT22;11746;50.876;4.246;2023-08-31T14:54:34;19.60;99.90
23156;DHT22;11746;50.876;4.246;2023-08-31T14:56:59;19.60;99.90
23156;DHT22;11746;50.876;4.246;2023-08-31T14:59:28;19.70;99.90
23156;DHT22;11746;50.876;4.246;2023-08-31T15:01:54;19.70;99.90
23156;DHT22;11746;50.876;4.246;2023-08-31T15:04:20;19.90;99.90
23156;DHT22;11746;50.876;4.246;2023-08-31T15:06:45;19.80;99.90
23156;DHT22;11746;50.876;4.246;2023-08-31T15:09:13;19.70;99.90
23156;DHT22;11746;50.876;4.246;2023-08-31T15:11:39;19.70;99.90
23156;DHT22;11746;50.876;4.246;2023-08-31T15:14:05;19.70;99.90
23156;DHT22;11746;50.876;4.246;2023-08-31T15:16:31;19.40;99.90
23156;DHT22;11746;50.876;4.246;2023-08-31T15:19:00;19.30;99.90
23156;DHT22;11746;50.876;4.246;2023-08-31T15:21:28;19.00;99.90
23156;DHT22;11746;50.876;4.246;2023-08-31T15:23:54;19.00;99.90
23156;DHT22;11746;50.876;4.246;2023-08-31T15:26:20;19.10;99.90
23156;DHT22;11746;50.876;4.246;2023-08-31T15:28:45;19.00;99.90
23156;DHT22;11746;50.876;4.246;2023-08-31T15:31:14;18.80;99.90
23156;DHT22;11746;50.876;4.246;2023-08-31T15:33:43;18.80;99.90
23156;DHT22;11746;50.876;4.246;2023-08-31T15:36:11;18.70;99.90
23156;DHT22;11746;50.876;4.246;2023-08-31T15:38:37;18.60;99.90